Time;durP1;ratioP1;P1;durP2;ratioP2;P2;SDS_P1;SDS_P2;PMS_P1;PMS_P2;Temp;Humidity;BMP_temperature;BMP_pressure;BME280_temperature;BME280_humidity;BME280_pressure;Samples;Min_cycle;Max_cycle;Signal;HPM_P1;HPM_P2
2020/12/09 00:02:08;;;;;;;83.37;36.73;;;;;;;;;;5060813;28;20021;-78
2020/12/09 00:04:34;;;;;;;72.97;35.67;;;;;;;;;;5061413;28;20032;-77
2020/12/09 00:06:59;;;;;;;75.73;35.33;;;;;;;;;;5060035;28;20096;-78
2020/12/09 00:09:24;;;;;;;77.77;35.13;;;;;;;;;;5063483;28;20047;-78
2020/12/09 00:11:53;;;;;;;73.23;35.70;;;;;;;;;;5059174;28;20117;-78
2020/12/09 00:14:19;;;;;;;80.63;36.17;;;;;;;;;;5059861;28;20051;-78
2020/12/09 00:16:44;;;;;;;78.83;35.67;;;;;;;;;;5053634;28;20045;-78
2020/12/09 00:19:09;;;;;;;76.13;35.80;;;;;;;;;;5063878;28;20025;-78
2020/12/09 00:21:34;;;;;;;78.43;36.40;;;;;;;;;;5061407;28;20033;-78
2020/12/09 00:24:00;;;;;;;74.73;36.27;;;;;;;;;;5060755;28;20453;-78
2020/12/09 00:26:26;;;;;;;77.80;36.03;;;;;;;;;;5065338;28;20075;-78
2020/12/09 00:28:52;;;;;;;75.23;34.47;;;;;;;;;;5060713;28;20009;-78
2020/12/09 00:31:18;;;;;;;76.10;34.70;;;;;;;;;;5065974;28;20036;-77
2020/12/09 00:33:45;;;;;;;73.13;32.70;;;;;;;;;;5065135;28;20494;-78
2020/12/09 00:36:12;;;;;;;78.87;35.03;;;;;;;;;;5055347;28;20024;-78
2020/12/09 00:38:37;;;;;;;73.57;34.23;;;;;;;;;;5058134;28;20029;-78
2020/12/09 00:41:03;;;;;;;76.20;35.90;;;;;;;;;;5060259;28;20028;-78
2020/12/09 00:43:28;;;;;;;76.50;33.23;;;;;;;;;;5057855;28;20098;-78
2020/12/09 00:45:53;;;;;;;75.13;33.60;;;;;;;;;;5059846;28;20013;-78
2020/12/09 00:48:18;;;;;;;88.33;33.27;;;;;;;;;;5057580;28;20020;-78
2020/12/09 00:50:43;;;;;;;76.23;33.50;;;;;;;;;;5059234;28;20064;-78
2020/12/09 00:53:09;;;;;;;74.83;30.20;;;;;;;;;;5062254;28;20024;-78
2020/12/09 00:55:34;;;;;;;75.70;31.17;;;;;;;;;;5058629;28;20021;-78
2020/12/09 00:57:59;;;;;;;89.00;31.53;;;;;;;;;;5052124;28;20021;-78
2020/12/09 01:00:24;;;;;;;98.93;33.17;;;;;;;;;;5062772;28;20104;-78
2020/12/09 01:02:50;;;;;;;84.60;31.70;;;;;;;;;;5061643;28;20016;-78
2020/12/09 01:05:15;;;;;;;77.20;33.30;;;;;;;;;;5069239;28;20027;-78
2020/12/09 01:07:40;;;;;;;82.40;32.37;;;;;;;;;;5061922;28;20495;-78
2020/12/09 01:10:06;;;;;;;75.70;32.63;;;;;;;;;;5059866;28;20028;-78
2020/12/09 01:12:32;;;;;;;71.77;31.03;;;;;;;;;;5072060;28;20467;-78
2020/12/09 01:14:57;;;;;;;71.60;30.17;;;;;;;;;;5056806;28;20024;-78
2020/12/09 01:17:22;;;;;;;62.57;27.97;;;;;;;;;;5063383;28;20034;-78
2020/12/09 01:19:47;;;;;;;64.23;30.17;;;;;;;;;;5060523;28;20028;-78
2020/12/09 01:22:13;;;;;;;62.77;27.27;;;;;;;;;;5062787;28;20020;-78
2020/12/09 01:24:38;;;;;;;61.83;26.30;;;;;;;;;;5059428;28;20467;-78
2020/12/09 01:27:03;;;;;;;57.60;26.57;;;;;;;;;;5067811;28;20020;-78
2020/12/09 01:29:28;;;;;;;64.63;27.00;;;;;;;;;;5061137;28;20040;-78
2020/12/09 01:31:57;;;;;;;84.07;29.67;;;;;;;;;;5060409;28;20028;-78
2020/12/09 01:34:23;;;;;;;82.13;28.60;;;;;;;;;;5071491;28;20051;-78
2020/12/09 01:36:48;;;;;;;68.40;26.20;;;;;;;;;;5070935;28;20440;-78
2020/12/09 01:39:13;;;;;;;51.00;25.00;;;;;;;;;;5095327;28;20028;-78
2020/12/09 01:41:38;;;;;;;80.73;26.40;;;;;;;;;;5065532;28;20020;-78
2020/12/09 01:44:04;;;;;;;60.80;24.30;;;;;;;;;;5062317;28;20052;-78
2020/12/09 01:46:29;;;;;;;64.40;23.97;;;;;;;;;;5061933;28;20425;-78
2020/12/09 01:48:55;;;;;;;69.67;24.27;;;;;;;;;;5062337;28;20024;-78
2020/12/09 01:51:23;;;;;;;87.93;26.13;;;;;;;;;;5057757;28;20032;-78
2020/12/09 01:53:49;;;;;;;74.90;25.37;;;;;;;;;;5069560;28;20024;-78
2020/12/09 01:56:14;;;;;;;82.13;23.80;;;;;;;;;;5063665;28;20027;-78
2020/12/09 01:58:39;;;;;;;79.90;25.10;;;;;;;;;;5062255;28;20021;-78
2020/12/09 02:01:04;;;;;;;76.00;23.07;;;;;;;;;;5063878;28;20021;-78
2020/12/09 02:03:29;;;;;;;76.67;25.37;;;;;;;;;;5072781;28;20024;-78
2020/12/09 02:05:55;;;;;;;85.63;24.67;;;;;;;;;;5062241;28;20094;-78
2020/12/09 02:08:20;;;;;;;69.17;22.67;;;;;;;;;;5057979;28;20024;-78
2020/12/09 02:10:54;;;;;;;71.93;24.90;;;;;;;;;;5062989;28;20031;-78
2020/12/09 02:13:19;;;;;;;63.27;24.27;;;;;;;;;;5054962;28;20460;-78
2020/12/09 02:15:45;;;;;;;74.53;23.20;;;;;;;;;;5063451;28;20062;-78
2020/12/09 02:18:10;;;;;;;73.07;24.70;;;;;;;;;;5074702;28;20028;-78
2020/12/09 02:20:35;;;;;;;47.17;22.93;;;;;;;;;;5065269;28;20063;-78
2020/12/09 02:23:00;;;;;;;68.27;25.53;;;;;;;;;;5061306;28;20024;-78
2020/12/09 02:25:25;;;;;;;51.70;23.47;;;;;;;;;;5066781;28;20384;-78
2020/12/09 02:27:50;;;;;;;57.50;23.43;;;;;;;;;;5057436;28;20035;-78
2020/12/09 02:30:16;;;;;;;61.80;24.87;;;;;;;;;;5058283;28;20055;-79
2020/12/09 02:32:41;;;;;;;59.83;23.47;;;;;;;;;;5062098;28;20021;-80
2020/12/09 02:35:06;;;;;;;56.60;24.23;;;;;;;;;;5058930;28;20059;-80
2020/12/09 02:37:32;;;;;;;61.67;24.87;;;;;;;;;;5067994;28;20512;-80
2020/12/09 02:39:57;;;;;;;56.40;24.97;;;;;;;;;;5063511;28;20020;-80
2020/12/09 02:42:22;;;;;;;71.63;25.60;;;;;;;;;;5060466;28;20038;-80
2020/12/09 02:44:47;;;;;;;65.40;24.20;;;;;;;;;;5058961;28;20029;-80
2020/12/09 02:47:13;;;;;;;55.87;23.97;;;;;;;;;;5065602;28;20423;-80
2020/12/09 02:49:38;;;;;;;78.00;25.20;;;;;;;;;;5066181;28;20096;-80
2020/12/09 02:52:03;;;;;;;61.00;25.50;;;;;;;;;;5064822;28;20112;-80
2020/12/09 02:54:28;;;;;;;59.07;24.47;;;;;;;;;;5066297;28;20481;-80
2020/12/09 02:56:53;;;;;;;72.23;24.63;;;;;;;;;;5058740;28;20021;-80
2020/12/09 02:59:19;;;;;;;65.83;24.93;;;;;;;;;;5064476;28;20020;-80
2020/12/09 03:01:44;;;;;;;75.60;24.13;;;;;;;;;;5060378;28;20483;-80
2020/12/09 03:04:09;;;;;;;59.50;25.50;;;;;;;;;;5059848;28;20020;-80
2020/12/09 03:06:34;;;;;;;80.03;25.43;;;;;;;;;;5058206;28;20068;-80
2020/12/09 03:09:00;;;;;;;61.77;24.20;;;;;;;;;;5060970;28;20032;-80
2020/12/09 03:11:25;;;;;;;67.77;23.83;;;;;;;;;;5064211;28;20029;-79
2020/12/09 03:13:50;;;;;;;61.87;25.37;;;;;;;;;;5064915;28;20016;-80
2020/12/09 03:16:15;;;;;;;70.37;25.50;;;;;;;;;;5061758;28;20017;-80
2020/12/09 03:18:41;;;;;;;62.13;24.37;;;;;;;;;;5056775;28;20013;-80
2020/12/09 03:21:06;;;;;;;66.53;25.77;;;;;;;;;;5069797;28;20085;-80
2020/12/09 03:23:32;;;;;;;61.73;24.63;;;;;;;;;;5053487;28;20052;-80
2020/12/09 03:25:58;;;;;;;59.43;23.03;;;;;;;;;;5060773;28;20063;-79
2020/12/09 03:28:23;;;;;;;64.67;24.50;;;;;;;;;;5068999;28;20025;-79
2020/12/09 03:30:48;;;;;;;68.03;24.97;;;;;;;;;;5068814;28;20073;-80
2020/12/09 03:33:13;;;;;;;59.93;24.27;;;;;;;;;;5061524;28;20154;-80
2020/12/09 03:35:38;;;;;;;62.83;24.07;;;;;;;;;;5059027;28;20021;-80
2020/12/09 03:38:04;;;;;;;62.63;25.03;;;;;;;;;;5062289;28;20028;-80
2020/12/09 03:40:29;;;;;;;65.30;25.17;;;;;;;;;;5053701;28;20024;-80
2020/12/09 03:42:54;;;;;;;65.53;25.50;;;;;;;;;;5059819;28;20090;-80
2020/12/09 03:45:22;;;;;;;58.70;25.30;;;;;;;;;;5062256;28;20029;-80
2020/12/09 03:47:47;;;;;;;56.60;24.50;;;;;;;;;;5061540;28;20016;-80
2020/12/09 03:50:12;;;;;;;59.17;23.87;;;;;;;;;;5061732;28;20361;-80
2020/12/09 03:52:38;;;;;;;58.23;25.83;;;;;;;;;;5055760;28;20032;-80
2020/12/09 03:55:03;;;;;;;59.60;25.80;;;;;;;;;;5062320;28;20088;-80
2020/12/09 03:57:28;;;;;;;56.10;25.10;;;;;;;;;;5056470;28;20066;-80
2020/12/09 03:59:53;;;;;;;55.93;23.87;;;;;;;;;;5061438;28;20036;-80
2020/12/09 04:02:18;;;;;;;55.17;24.13;;;;;;;;;;5062688;28;20028;-80
2020/12/09 04:04:44;;;;;;;52.70;24.67;;;;;;;;;;5060800;28;20021;-80
2020/12/09 04:07:09;;;;;;;56.33;24.57;;;;;;;;;;5061873;28;20074;-80
2020/12/09 04:09:34;;;;;;;60.50;23.90;;;;;;;;;;5065087;28;20032;-80
2020/12/09 04:11:59;;;;;;;59.80;26.00;;;;;;;;;;5062197;28;20017;-80
2020/12/09 04:14:25;;;;;;;61.97;26.83;;;;;;;;;;5054860;28;20422;-80
2020/12/09 04:16:50;;;;;;;59.47;24.73;;;;;;;;;;5059591;28;20028;-80
2020/12/09 04:19:15;;;;;;;61.47;27.17;;;;;;;;;;5055313;28;20024;-79
2020/12/09 04:21:42;;;;;;;58.90;26.80;;;;;;;;;;5056190;28;20100;-80
2020/12/09 04:24:07;;;;;;;59.80;25.43;;;;;;;;;;5070524;28;20064;-80
2020/12/09 04:26:32;;;;;;;58.63;24.73;;;;;;;;;;5054625;28;20028;-79
2020/12/09 04:28:57;;;;;;;62.10;24.83;;;;;;;;;;5062302;28;20027;-80
2020/12/09 04:31:22;;;;;;;60.43;25.67;;;;;;;;;;5064943;28;20024;-80
2020/12/09 04:33:55;;;;;;;62.33;25.63;;;;;;;;;;5062714;28;20483;-80
2020/12/09 04:36:21;;;;;;;65.17;26.30;;;;;;;;;;5055120;28;20029;-80
2020/12/09 04:38:46;;;;;;;59.27;24.87;;;;;;;;;;5067771;28;20096;-80
2020/12/09 04:41:12;;;;;;;61.00;24.93;;;;;;;;;;5060299;28;20100;-80
2020/12/09 04:43:37;;;;;;;56.67;23.83;;;;;;;;;;5091453;28;20020;-80
2020/12/09 04:46:02;;;;;;;55.47;23.73;;;;;;;;;;5075070;28;20023;-81
2020/12/09 04:48:28;;;;;;;54.37;22.97;;;;;;;;;;5060437;28;20220;-80
2020/12/09 04:50:53;;;;;;;55.10;23.73;;;;;;;;;;5066652;28;20021;-81
2020/12/09 04:53:25;;;;;;;58.17;25.93;;;;;;;;;;5073021;28;20013;-80
2020/12/09 04:55:51;;;;;;;56.43;25.00;;;;;;;;;;5064347;28;20013;-80
2020/12/09 04:58:20;;;;;;;59.57;25.27;;;;;;;;;;5063229;28;20024;-80
2020/12/09 05:00:46;;;;;;;57.93;24.70;;;;;;;;;;5072912;28;20032;-80
2020/12/09 05:03:18;;;;;;;58.03;24.87;;;;;;;;;;5061159;28;20372;-80
2020/12/09 05:05:44;;;;;;;65.63;24.63;;;;;;;;;;5066236;28;20039;-80
2020/12/09 05:08:12;;;;;;;54.00;24.77;;;;;;;;;;5067581;28;20021;-80
2020/12/09 05:10:45;;;;;;;54.67;23.97;;;;;;;;;;5064128;28;20418;-80
2020/12/09 05:13:11;;;;;;;62.30;25.93;;;;;;;;;;5057673;28;20048;-80
2020/12/09 05:15:37;;;;;;;57.53;23.87;;;;;;;;;;5063679;28;20381;-80
2020/12/09 05:18:06;;;;;;;54.00;22.90;;;;;;;;;;5062845;28;20071;-80
2020/12/09 05:20:39;;;;;;;55.20;23.53;;;;;;;;;;5063516;28;20073;-80
2020/12/09 05:23:05;;;;;;;50.60;23.30;;;;;;;;;;5063865;28;20111;-80
2020/12/09 05:25:31;;;;;;;60.97;25.57;;;;;;;;;;5093915;27;20048;-80
2020/12/09 05:27:57;;;;;;;58.83;25.87;;;;;;;;;;5095607;28;20060;-80
2020/12/09 05:30:41;;;;;;;56.40;23.03;;;;;;;;;;5059547;28;20031;-80
2020/12/09 05:33:07;;;;;;;60.30;23.93;;;;;;;;;;5062044;28;20019;-80
2020/12/09 05:35:33;;;;;;;58.90;23.50;;;;;;;;;;5064065;28;20023;-80
2020/12/09 05:38:07;;;;;;;58.13;24.20;;;;;;;;;;5063303;28;20024;-80
2020/12/09 05:40:32;;;;;;;53.13;24.50;;;;;;;;;;5057701;28;20076;-80
2020/12/09 05:42:58;;;;;;;44.83;18.27;;;;;;;;;;5067991;28;20056;-80
2020/12/09 05:45:23;;;;;;;54.43;23.97;;;;;;;;;;5063441;28;20032;-80
2020/12/09 05:47:48;;;;;;;58.20;26.27;;;;;;;;;;5060984;28;20119;-79
2020/12/09 05:50:14;;;;;;;60.00;27.17;;;;;;;;;;5066947;28;20024;-80
2020/12/09 05:52:39;;;;;;;64.90;28.10;;;;;;;;;;5061824;28;20024;-79
2020/12/09 05:55:04;;;;;;;66.37;28.23;;;;;;;;;;5067381;28;20104;-80
2020/12/09 05:57:29;;;;;;;68.40;28.87;;;;;;;;;;5074727;28;20028;-80
2020/12/09 05:59:54;;;;;;;66.10;27.23;;;;;;;;;;5065586;28;20582;-80
2020/12/09 06:02:20;;;;;;;60.77;26.23;;;;;;;;;;5064060;28;20368;-80
2020/12/09 06:04:45;;;;;;;69.97;28.40;;;;;;;;;;5062986;28;20028;-80
2020/12/09 06:07:11;;;;;;;63.17;24.93;;;;;;;;;;5058603;28;20032;-80
2020/12/09 06:09:38;;;;;;;63.87;23.83;;;;;;;;;;5057621;28;20021;-80
2020/12/09 06:12:03;;;;;;;63.80;25.37;;;;;;;;;;5062589;28;20036;-80
2020/12/09 06:14:28;;;;;;;55.50;22.23;;;;;;;;;;5060819;28;20025;-80
2020/12/09 06:16:53;;;;;;;64.77;27.07;;;;;;;;;;5066156;28;20024;-80
2020/12/09 06:19:18;;;;;;;65.87;25.30;;;;;;;;;;5065022;28;20064;-80
2020/12/09 06:21:43;;;;;;;62.23;25.40;;;;;;;;;;5069397;28;20035;-80
2020/12/09 06:24:09;;;;;;;58.87;23.17;;;;;;;;;;5061877;28;20024;-80
2020/12/09 06:26:34;;;;;;;63.93;23.77;;;;;;;;;;5059952;28;20829;-80
2020/12/09 06:28:59;;;;;;;63.80;26.60;;;;;;;;;;5067754;28;20028;-80
2020/12/09 06:31:24;;;;;;;60.40;26.13;;;;;;;;;;5072156;28;20100;-80
2020/12/09 06:33:54;;;;;;;64.33;24.07;;;;;;;;;;5065669;28;20135;-80
2020/12/09 06:36:26;;;;;;;58.43;23.40;;;;;;;;;;5059798;28;20058;-80
2020/12/09 06:39:04;;;;;;;56.88;23.08;;;;;;;;;;5056735;28;20548;-80
2020/12/09 06:41:29;;;;;;;60.97;24.93;;;;;;;;;;5062158;28;20116;-80
2020/12/09 06:44:05;;;;;;;56.13;21.97;;;;;;;;;;5063040;28;20480;-80
2020/12/09 06:46:36;;;;;;;51.97;20.60;;;;;;;;;;5058279;28;20087;-80
2020/12/09 06:49:01;;;;;;;53.47;23.07;;;;;;;;;;5061514;28;20017;-80
2020/12/09 06:51:36;;;;;;;62.17;25.03;;;;;;;;;;5068650;28;20043;-80
2020/12/09 06:54:11;;;;;;;59.43;24.80;;;;;;;;;;5060023;28;20021;-80
2020/12/09 06:56:36;;;;;;;54.17;19.67;;;;;;;;;;5061406;28;20033;-80
2020/12/09 06:59:20;;;;;;;54.20;22.43;;;;;;;;;;5057951;28;20107;-80
2020/12/09 07:02:04;;;;;;;53.53;23.87;;;;;;;;;;5063486;28;20020;-80
2020/12/09 07:04:56;;;;;;;61.10;26.67;;;;;;;;;;5059143;28;20044;-80
2020/12/09 07:07:44;;;;;;;58.30;24.00;;;;;;;;;;5057605;28;20064;-80
2020/12/09 07:10:11;;;;;;;61.50;25.03;;;;;;;;;;5052358;28;20036;-80
2020/12/09 07:12:36;;;;;;;58.97;24.73;;;;;;;;;;5068535;28;20024;-80
2020/12/09 07:15:02;;;;;;;65.27;27.87;;;;;;;;;;5062595;28;20112;-80
2020/12/09 07:17:27;;;;;;;59.77;23.57;;;;;;;;;;5058467;28;20055;-80
2020/12/09 07:19:55;;;;;;;55.73;23.37;;;;;;;;;;5060161;28;20090;-80
2020/12/09 07:22:20;;;;;;;51.37;20.13;;;;;;;;;;5058517;28;20039;-80
2020/12/09 07:24:45;;;;;;;55.83;23.23;;;;;;;;;;5060093;28;20025;-80
2020/12/09 07:27:12;;;;;;;60.30;25.43;;;;;;;;;;5068978;28;20380;-80
2020/12/09 07:29:44;;;;;;;55.97;23.00;;;;;;;;;;5058182;28;20079;-80
2020/12/09 07:32:09;;;;;;;;;;;;;;;;;;5059620;28;20016;-80
2020/12/09 07:34:47;;;;;;;59.85;24.30;;;;;;;;;;5092437;28;19969;-80
2020/12/09 07:37:12;;;;;;;55.93;22.70;;;;;;;;;;5064597;28;20376;-79
2020/12/09 07:39:37;;;;;;;59.77;23.20;;;;;;;;;;5065224;28;20032;-80
2020/12/09 07:42:03;;;;;;;48.47;20.03;;;;;;;;;;5068760;28;20028;-80
2020/12/09 07:44:28;;;;;;;43.23;17.37;;;;;;;;;;5060073;28;20563;-80
2020/12/09 07:46:57;;;;;;;43.93;19.20;;;;;;;;;;5067729;28;20032;-80
2020/12/09 07:49:24;;;;;;;45.53;19.87;;;;;;;;;;5066938;28;20016;-80
2020/12/09 07:51:51;;;;;;;43.00;19.07;;;;;;;;;;5070588;28;20032;-80
2020/12/09 07:54:17;;;;;;;47.37;19.87;;;;;;;;;;5067610;28;20410;-80
2020/12/09 07:56:42;;;;;;;52.37;23.47;;;;;;;;;;5065874;28;20036;-81
2020/12/09 07:59:07;;;;;;;49.27;21.17;;;;;;;;;;5088480;28;20028;-80
2020/12/09 08:01:33;;;;;;;50.37;22.33;;;;;;;;;;5074058;28;20040;-80
2020/12/09 08:03:58;;;;;;;51.50;21.87;;;;;;;;;;5062195;28;20044;-80
2020/12/09 08:06:23;;;;;;;53.20;21.93;;;;;;;;;;5064729;28;20029;-80
2020/12/09 08:08:50;;;;;;;39.57;14.33;;;;;;;;;;5058666;28;20017;-80
2020/12/09 08:11:16;;;;;;;55.87;23.93;;;;;;;;;;5060493;28;20021;-80
2020/12/09 08:13:41;;;;;;;56.77;27.57;;;;;;;;;;5067501;28;20024;-79
2020/12/09 08:16:14;;;;;;;69.00;30.37;;;;;;;;;;5062513;28;20021;-80
2020/12/09 08:18:40;;;;;;;63.50;25.60;;;;;;;;;;5061588;28;20107;-80
2020/12/09 08:21:05;;;;;;;63.90;24.80;;;;;;;;;;5057834;28;20024;-80
2020/12/09 08:23:43;;;;;;;74.03;30.43;;;;;;;;;;5065618;28;20016;-79
2020/12/09 08:26:09;;;;;;;71.87;28.80;;;;;;;;;;5066719;28;20103;-79
2020/12/09 08:28:35;;;;;;;63.37;26.93;;;;;;;;;;5067274;28;20028;-80
2020/12/09 08:31:11;;;;;;;56.43;24.63;;;;;;;;;;5068239;28;20068;-79
2020/12/09 08:33:37;;;;;;;56.23;24.10;;;;;;;;;;5068701;28;20491;-80
2020/12/09 08:36:10;;;;;;;57.33;23.83;;;;;;;;;;5074631;28;20088;-79
2020/12/09 08:38:46;;;;;;;54.37;22.73;;;;;;;;;;5073471;28;20089;-80
2020/12/09 08:41:13;;;;;;;53.93;22.33;;;;;;;;;;5064563;28;20024;-80
2020/12/09 08:43:39;;;;;;;42.90;18.53;;;;;;;;;;5058707;28;20037;-81
2020/12/09 08:46:05;;;;;;;50.70;21.63;;;;;;;;;;5070403;28;20111;-79
2020/12/09 08:48:34;;;;;;;55.17;24.03;;;;;;;;;;5074722;28;20476;-80
2020/12/09 08:50:59;;;;;;;52.90;22.20;;;;;;;;;;5063831;28;20052;-80
2020/12/09 08:53:25;;;;;;;50.67;21.73;;;;;;;;;;5064178;28;20107;-80
2020/12/09 08:55:50;;;;;;;50.50;22.00;;;;;;;;;;5053139;28;20028;-80
2020/12/09 08:58:16;;;;;;;52.63;24.13;;;;;;;;;;5060911;28;20093;-79
2020/12/09 09:00:42;;;;;;;55.53;25.77;;;;;;;;;;5061639;28;20036;-80
2020/12/09 09:03:17;;;;;;;56.70;23.47;;;;;;;;;;5058527;28;20409;-80
2020/12/09 09:05:43;;;;;;;51.30;22.20;;;;;;;;;;5059444;28;20029;-79
2020/12/09 09:08:08;;;;;;;39.87;15.80;;;;;;;;;;5056049;28;20162;-80
2020/12/09 09:10:34;;;;;;;51.57;20.23;;;;;;;;;;5067938;28;20020;-80
2020/12/09 09:13:00;;;;;;;47.07;21.33;;;;;;;;;;5058817;28;20517;-80
2020/12/09 09:15:25;;;;;;;47.13;23.17;;;;;;;;;;5071695;28;20016;-80
2020/12/09 09:17:50;;;;;;;51.20;24.73;;;;;;;;;;5068539;28;20050;-80
2020/12/09 09:20:15;;;;;;;50.53;23.63;;;;;;;;;;5068745;28;20423;-79
2020/12/09 09:22:41;;;;;;;42.43;17.17;;;;;;;;;;5055602;28;20063;-80
2020/12/09 09:25:06;;;;;;;48.30;21.57;;;;;;;;;;5063044;28;20027;-79
2020/12/09 09:27:31;;;;;;;50.90;22.80;;;;;;;;;;5072178;28;20054;-79
2020/12/09 09:29:56;;;;;;;53.57;23.47;;;;;;;;;;5064798;28;20368;-79
2020/12/09 09:32:22;;;;;;;55.07;24.73;;;;;;;;;;5061086;28;20017;-79
2020/12/09 09:34:47;;;;;;;51.33;23.30;;;;;;;;;;5064689;28;20104;-80
2020/12/09 09:37:12;;;;;;;48.90;22.37;;;;;;;;;;5074487;28;20016;-79
2020/12/09 09:39:38;;;;;;;51.17;22.33;;;;;;;;;;5060539;28;20036;-79
2020/12/09 09:42:06;;;;;;;47.23;20.90;;;;;;;;;;5060421;28;20025;-79
2020/12/09 09:44:31;;;;;;;47.47;19.80;;;;;;;;;;5060610;28;20017;-80
2020/12/09 09:46:57;;;;;;;33.73;12.07;;;;;;;;;;5059311;28;20089;-80
2020/12/09 09:49:23;;;;;;;35.43;15.23;;;;;;;;;;5060656;28;20063;-80
2020/12/09 09:51:50;;;;;;;39.37;18.13;;;;;;;;;;5057753;28;20389;-80
2020/12/09 09:54:15;;;;;;;39.23;17.43;;;;;;;;;;5060859;28;20011;-80
2020/12/09 09:56:41;;;;;;;41.23;18.23;;;;;;;;;;5064896;28;20028;-79
2020/12/09 09:59:06;;;;;;;38.00;17.00;;;;;;;;;;5056907;28;20524;-80
2020/12/09 10:01:31;;;;;;;46.10;21.73;;;;;;;;;;5061677;28;20048;-79
2020/12/09 10:03:57;;;;;;;41.23;17.27;;;;;;;;;;5064475;28;20468;-79
2020/12/09 10:06:22;;;;;;;36.77;16.77;;;;;;;;;;5058516;28;20070;-79
2020/12/09 10:08:47;;;;;;;42.53;18.77;;;;;;;;;;5074413;28;20078;-79
2020/12/09 10:11:12;;;;;;;42.63;21.10;;;;;;;;;;5062171;28;20427;-79
2020/12/09 10:13:37;;;;;;;45.23;20.33;;;;;;;;;;5064902;28;20048;-79
2020/12/09 10:16:03;;;;;;;43.20;22.00;;;;;;;;;;5057490;28;20021;-79
2020/12/09 10:18:28;;;;;;;46.10;18.67;;;;;;;;;;5061631;28;20090;-80
2020/12/09 10:20:53;;;;;;;37.87;14.87;;;;;;;;;;5059209;28;20037;-79
2020/12/09 10:23:18;;;;;;;37.77;17.53;;;;;;;;;;5059056;28;20082;-79
2020/12/09 10:25:44;;;;;;;43.70;18.67;;;;;;;;;;5068002;28;20029;-79
2020/12/09 10:28:10;;;;;;;41.87;18.23;;;;;;;;;;5057640;28;20028;-79
2020/12/09 10:30:35;;;;;;;36.10;17.33;;;;;;;;;;5063676;28;20043;-80
2020/12/09 10:33:00;;;;;;;40.17;18.87;;;;;;;;;;5058433;28;20424;-79
2020/12/09 10:35:25;;;;;;;31.07;12.37;;;;;;;;;;5059899;28;20021;-80
2020/12/09 10:37:51;;;;;;;40.97;17.53;;;;;;;;;;5065731;28;20021;-80
2020/12/09 10:40:16;;;;;;;35.03;13.90;;;;;;;;;;5060257;28;20029;-79
2020/12/09 10:42:41;;;;;;;37.80;17.97;;;;;;;;;;5061506;28;20376;-80
2020/12/09 10:45:06;;;;;;;44.43;20.63;;;;;;;;;;5069430;28;20016;-80
2020/12/09 10:47:32;;;;;;;29.17;12.40;;;;;;;;;;5072207;28;20036;-80
2020/12/09 10:49:57;;;;;;;40.13;19.43;;;;;;;;;;5071062;28;20016;-79
2020/12/09 10:52:23;;;;;;;40.50;16.93;;;;;;;;;;5067783;28;20016;-80
2020/12/09 10:54:48;;;;;;;37.17;16.33;;;;;;;;;;5068297;28;20360;-80
2020/12/09 10:57:14;;;;;;;28.70;13.00;;;;;;;;;;5068769;28;20053;-80
2020/12/09 10:59:39;;;;;;;36.83;18.40;;;;;;;;;;5062955;28;20024;-80
2020/12/09 11:02:04;;;;;;;37.10;17.23;;;;;;;;;;5059891;28;20024;-80
2020/12/09 11:04:30;;;;;;;37.90;18.60;;;;;;;;;;5062508;28;20422;-79
2020/12/09 11:06:55;;;;;;;39.23;16.63;;;;;;;;;;5069894;28;20024;-80
2020/12/09 11:09:20;;;;;;;37.67;18.03;;;;;;;;;;5057988;28;20032;-80
2020/12/09 11:11:46;;;;;;;38.00;15.83;;;;;;;;;;5061400;28;20024;-79
2020/12/09 11:14:12;;;;;;;38.97;17.73;;;;;;;;;;5065626;28;20064;-80
2020/12/09 11:16:37;;;;;;;36.60;16.23;;;;;;;;;;5059559;28;20437;-79
2020/12/09 11:19:02;;;;;;;37.23;17.07;;;;;;;;;;5064678;28;20017;-79
2020/12/09 11:21:28;;;;;;;39.07;16.23;;;;;;;;;;5072302;28;20016;-79
2020/12/09 11:23:53;;;;;;;38.23;17.83;;;;;;;;;;5058249;28;20025;-79
2020/12/09 11:26:19;;;;;;;36.97;17.70;;;;;;;;;;5059533;28;20024;-79
2020/12/09 11:28:44;;;;;;;41.30;17.50;;;;;;;;;;5062781;28;20375;-79
2020/12/09 11:31:09;;;;;;;40.07;18.90;;;;;;;;;;5065426;28;20032;-80
2020/12/09 11:33:35;;;;;;;45.63;20.53;;;;;;;;;;5060392;28;20021;-79
2020/12/09 11:36:00;;;;;;;39.03;16.33;;;;;;;;;;5073476;28;20020;-79
2020/12/09 11:38:26;;;;;;;38.07;15.70;;;;;;;;;;5061355;28;20075;-79
2020/12/09 11:40:51;;;;;;;39.90;18.60;;;;;;;;;;5070872;28;20074;-79
2020/12/09 11:43:16;;;;;;;43.00;19.20;;;;;;;;;;5070688;28;20013;-79
2020/12/09 11:45:41;;;;;;;42.80;21.33;;;;;;;;;;5060365;28;20029;-80
2020/12/09 11:48:07;;;;;;;41.93;19.07;;;;;;;;;;5058213;28;20016;-78
2020/12/09 11:50:32;;;;;;;47.10;21.30;;;;;;;;;;5063487;28;20029;-79
2020/12/09 11:52:57;;;;;;;42.97;20.50;;;;;;;;;;5064877;28;20017;-79
2020/12/09 11:55:22;;;;;;;41.63;18.87;;;;;;;;;;5061291;28;20070;-79
2020/12/09 11:57:47;;;;;;;42.53;16.87;;;;;;;;;;5069799;28;20025;-79
2020/12/09 12:00:13;;;;;;;34.50;14.30;;;;;;;;;;5068730;28;20024;-80
2020/12/09 12:02:38;;;;;;;32.90;14.20;;;;;;;;;;5071816;28;20058;-79
2020/12/09 12:05:04;;;;;;;33.17;14.83;;;;;;;;;;5069478;28;20069;-79
2020/12/09 12:07:29;;;;;;;41.70;15.23;;;;;;;;;;5064365;28;20017;-80
2020/12/09 12:09:54;;;;;;;37.20;14.07;;;;;;;;;;5069552;28;20025;-80
2020/12/09 12:12:19;;;;;;;35.23;15.13;;;;;;;;;;5059201;28;20021;-80
2020/12/09 12:14:45;;;;;;;37.70;13.50;;;;;;;;;;5062388;28;20024;-80
2020/12/09 12:17:11;;;;;;;36.87;16.03;;;;;;;;;;5058913;28;20020;-80
2020/12/09 12:19:36;;;;;;;30.60;12.40;;;;;;;;;;5060403;28;20032;-80
2020/12/09 12:22:05;;;;;;;34.67;15.63;;;;;;;;;;5057545;28;20021;-80
2020/12/09 12:24:30;;;;;;;43.60;16.47;;;;;;;;;;5055262;28;20043;-80
2020/12/09 12:26:55;;;;;;;38.03;16.03;;;;;;;;;;5068448;28;20452;-80
2020/12/09 12:29:21;;;;;;;39.40;15.60;;;;;;;;;;5065026;28;20024;-80
2020/12/09 12:31:46;;;;;;;36.07;14.77;;;;;;;;;;5068868;28;20367;-80
2020/12/09 12:34:11;;;;;;;40.77;17.17;;;;;;;;;;5067849;28;20464;-80
2020/12/09 12:36:36;;;;;;;33.00;14.90;;;;;;;;;;5059947;28;20381;-80
2020/12/09 12:39:02;;;;;;;37.30;15.57;;;;;;;;;;5059797;28;20041;-80
2020/12/09 12:41:27;;;;;;;33.67;14.83;;;;;;;;;;5060458;28;20021;-80
2020/12/09 12:43:52;;;;;;;30.23;13.90;;;;;;;;;;5061199;28;20079;-81
2020/12/09 12:46:18;;;;;;;34.07;14.07;;;;;;;;;;5061214;28;20522;-81
2020/12/09 12:48:43;;;;;;;38.17;15.43;;;;;;;;;;5067334;28;20031;-79
2020/12/09 12:51:08;;;;;;;35.47;15.23;;;;;;;;;;5064204;28;20021;-79
2020/12/09 12:53:33;;;;;;;32.87;13.43;;;;;;;;;;5067912;28;20054;-80
2020/12/09 12:55:59;;;;;;;37.80;17.13;;;;;;;;;;5060968;28;20116;-79
2020/12/09 12:58:24;;;;;;;39.63;16.37;;;;;;;;;;5061790;28;20449;-79
2020/12/09 13:00:49;;;;;;;40.60;17.43;;;;;;;;;;5069287;28;20028;-78
2020/12/09 13:03:15;;;;;;;35.80;15.10;;;;;;;;;;5073522;28;20039;-79
2020/12/09 13:05:40;;;;;;;35.33;15.43;;;;;;;;;;5068556;28;20025;-80
2020/12/09 13:08:05;;;;;;;39.43;16.13;;;;;;;;;;5064186;28;20115;-80
2020/12/09 13:10:30;;;;;;;39.33;17.20;;;;;;;;;;5070209;28;20021;-80
2020/12/09 13:12:55;;;;;;;41.27;17.87;;;;;;;;;;5071985;28;20027;-79
2020/12/09 13:15:21;;;;;;;39.43;16.53;;;;;;;;;;5068372;28;20021;-79
2020/12/09 13:17:46;;;;;;;38.30;14.37;;;;;;;;;;5061616;28;20032;-80
2020/12/09 13:20:11;;;;;;;37.10;15.90;;;;;;;;;;5062687;28;20443;-80
2020/12/09 13:22:37;;;;;;;33.43;14.13;;;;;;;;;;5059721;28;20025;-80
2020/12/09 13:25:03;;;;;;;35.60;16.40;;;;;;;;;;5064079;28;20480;-79
2020/12/09 13:27:28;;;;;;;34.23;14.67;;;;;;;;;;5068501;28;20424;-79
2020/12/09 13:29:53;;;;;;;41.60;16.73;;;;;;;;;;5062496;28;20675;-80
2020/12/09 13:32:18;;;;;;;34.87;12.83;;;;;;;;;;5067313;28;20156;-79
2020/12/09 13:34:44;;;;;;;32.67;13.43;;;;;;;;;;5068157;28;20372;-80
2020/12/09 13:37:09;;;;;;;38.00;16.63;;;;;;;;;;5070489;28;20039;-80
2020/12/09 13:39:34;;;;;;;35.40;16.20;;;;;;;;;;5058706;28;20017;-79
2020/12/09 13:41:59;;;;;;;35.70;16.10;;;;;;;;;;5072524;28;20534;-81
2020/12/09 13:44:24;;;;;;;37.07;15.53;;;;;;;;;;5063670;28;20035;-80
2020/12/09 13:46:50;;;;;;;34.17;14.93;;;;;;;;;;5070591;28;20085;-80
2020/12/09 13:49:15;;;;;;;36.87;16.27;;;;;;;;;;5066841;28;20024;-80
2020/12/09 13:51:40;;;;;;;36.70;15.83;;;;;;;;;;5067488;28;20052;-80
2020/12/09 13:54:06;;;;;;;30.20;13.20;;;;;;;;;;5073911;28;20020;-79
2020/12/09 13:56:32;;;;;;;32.83;13.77;;;;;;;;;;5069658;28;20013;-81
2020/12/09 13:58:57;;;;;;;30.70;13.30;;;;;;;;;;5060723;28;20051;-81
2020/12/09 14:01:23;;;;;;;35.73;14.50;;;;;;;;;;5066848;28;20012;-81
2020/12/09 14:03:48;;;;;;;32.77;15.30;;;;;;;;;;5063621;28;20020;-81
2020/12/09 14:06:24;;;;;;;31.77;13.33;;;;;;;;;;5063586;28;20034;-81
2020/12/09 14:08:50;;;;;;;32.33;13.87;;;;;;;;;;5060838;28;20025;-81
2020/12/09 14:11:30;;;;;;;32.23;13.27;;;;;;;;;;5068979;28;20021;-81
2020/12/09 14:13:56;;;;;;;34.57;15.03;;;;;;;;;;5056132;28;20082;-81